Time;durP1;ratioP1;P1;durP2;ratioP2;P2;SDS_P1;SDS_P2;PMS_P1;PMS_P2;Temp;Humidity;BMP_temperature;BMP_pressure;BME280_temperature;BME280_humidity;BME280_pressure;Samples;Min_cycle;Max_cycle;Signal;HPM_P1;HPM_P2
2023/03/17 09:09:47;;;;;;;;;6.00;5.75;;;;;18.99;43.01;100385.22;5103727;27;45487;-73
2023/03/17 09:12:13;;;;;;;;;5.00;5.00;;;;;19.52;43.72;100382.03;5089598;27;45842;-74
2023/03/17 09:14:39;;;;;;;;;6.75;5.00;;;;;20.27;43.99;100386.34;5097133;27;45526;-75
2023/03/17 09:17:06;;;;;;;;;5.75;4.25;;;;;21.13;44.25;100383.09;5099427;27;45269;-75
2023/03/17 09:19:32;;;;;;;;;4.50;3.00;;;;;21.89;43.53;100377.78;5098630;27;46425;-73
2023/03/17 09:21:57;;;;;;;;;6.50;6.50;;;;;22.66;42.97;100375.81;5098851;27;45478;-74
2023/03/17 09:24:22;;;;;;;;;4.50;4.50;;;;;23.31;42.88;100373.06;5106367;27;46443;-74
2023/03/17 09:26:48;;;;;;;;;4.33;4.33;;;;;23.88;41.89;100373.81;5105404;27;46209;-74
2023/03/17 09:29:14;;;;;;;;;4.33;3.67;;;;;24.37;41.36;100368.19;5091427;27;47916;-76
2023/03/17 09:31:40;;;;;;;;;7.00;5.67;;;;;24.78;40.89;100369.66;5093606;27;45541;-75
2023/03/17 09:34:05;;;;;;;;;8.33;6.67;;;;;25.15;40.12;100367.06;5092542;27;45612;-75
2023/03/17 09:36:34;;;;;;;;;4.33;4.33;;;;;25.48;40.05;100372.94;5087778;27;45463;-74
2023/03/17 09:39:00;;;;;;;;;4.33;3.00;;;;;25.77;39.53;100373.91;5096702;27;45584;-73
2023/03/17 09:41:57;;;;;;;;;3.67;3.67;;;;;26.08;38.64;100379.22;5094193;27;45317;-72
2023/03/17 09:44:32;;;;;;;;;3.67;3.67;;;;;26.31;38.62;100379.03;5076274;27;45431;-70
2023/03/17 09:47:22;;;;;;;;;8.67;5.00;;;;;26.51;38.42;100370.19;5100468;27;45431;-72
2023/03/17 09:49:57;;;;;;;;;4.00;4.00;;;;;26.70;38.16;100364.03;5104640;27;45476;-73
2023/03/17 09:52:32;;;;;;;;;5.00;3.33;;;;;26.84;38.00;100362.25;5099930;27;45788;-77
2023/03/17 09:55:00;;;;;;;;;4.00;4.00;;;;;26.95;37.48;100362.75;5106119;27;45511;-76
2023/03/17 09:57:33;;;;;;;;;3.67;3.67;;;;;27.08;37.07;100371.00;5109327;27;45350;-75
2023/03/17 10:00:13;;;;;;;;;5.00;5.00;;;;;27.20;37.19;100365.84;5107406;27;45810;-74
2023/03/17 10:02:39;;;;;;;;;4.67;4.00;;;;;27.33;36.70;100364.19;5104611;27;45912;-73
2023/03/17 10:05:25;;;;;;;;;6.33;6.00;;;;;27.44;36.10;100366.34;5094697;27;45564;-74
2023/03/17 10:07:53;;;;;;;;;5.67;4.00;;;;;27.49;35.82;100368.44;5108526;27;45458;-73
2023/03/17 10:10:32;;;;;;;;;3.00;3.00;;;;;27.48;35.94;100378.53;5107662;27;45532;-75
2023/03/17 10:13:16;;;;;;;;;3.00;3.00;;;;;27.46;35.59;100375.16;5106051;27;45374;-75
2023/03/17 10:16:02;;;;;;;;;4.00;2.33;;;;;27.46;34.98;100379.78;5091999;27;45367;-76
2023/03/17 10:18:42;;;;;;;;;3.00;3.00;;;;;27.47;34.92;100379.56;5086302;27;45474;-76
2023/03/17 10:21:12;;;;;;;;;3.67;3.67;;;;;27.49;35.13;100388.38;5080862;27;46308;-76
2023/03/17 10:23:38;;;;;;;;;2.67;2.33;;;;;27.56;34.74;100393.00;5091077;27;45712;-74
2023/03/17 10:26:23;;;;;;;;;6.33;3.67;;;;;27.66;34.75;100392.66;5074947;27;45582;-76
2023/03/17 10:28:49;;;;;;;;;3.00;3.00;;;;;27.77;34.96;100391.19;5075541;27;45459;-76
2023/03/17 10:31:17;;;;;;;;;3.00;3.00;;;;;27.87;34.57;100402.53;5074937;27;46006;-73
2023/03/17 10:33:47;;;;;;;;;4.00;4.00;;;;;27.95;33.94;100410.53;5076048;27;45832;-72
2023/03/17 10:36:15;;;;;;;;;2.33;2.33;;;;;28.02;33.65;100407.84;5076003;27;45758;-74
2023/03/17 10:38:50;;;;;;;;;6.00;5.00;;;;;28.07;33.76;100393.59;5083683;27;45866;-72
2023/03/17 10:41:16;;;;;;;;;5.33;3.67;;;;;28.11;33.95;100397.56;5075442;27;45463;-71
2023/03/17 10:43:49;;;;;;;;;3.00;3.00;;;;;28.13;34.01;100392.75;5076901;27;45821;-76
2023/03/17 10:46:23;;;;;;;;;5.00;4.00;;;;;28.13;33.38;100379.94;5075494;27;45573;-75
2023/03/17 10:49:15;;;;;;;;;4.00;3.00;;;;;28.15;33.18;100385.19;5065523;27;45826;-72
2023/03/17 10:51:45;;;;;;;;;8.33;3.00;;;;;28.13;32.93;100396.28;5076135;27;46340;-73
2023/03/17 10:54:16;;;;;;;;;3.67;3.67;;;;;28.17;33.46;100393.16;5075948;27;45821;-73
2023/03/17 10:56:45;;;;;;;;;2.67;2.67;;;;;28.20;33.26;100390.03;5078002;27;45384;-73
2023/03/17 10:59:19;;;;;;;;;3.00;3.00;;;;;28.21;32.95;100381.63;5075531;27;45470;-73
2023/03/17 11:02:25;;;;;;;;;2.00;2.00;;;;;28.26;32.83;100389.22;5077154;27;46612;-73
2023/03/17 11:05:16;;;;;;;;;2.33;2.00;;;;;28.27;32.74;100386.28;5075389;27;45482;-73
2023/03/17 11:07:42;;;;;;;;;2.67;2.67;;;;;28.32;33.04;100398.47;5073883;27;45431;-73
2023/03/17 11:10:19;;;;;;;;;3.67;3.67;;;;;28.36;33.12;100403.28;5080119;27;45742;-73
2023/03/17 11:12:48;;;;;;;;;3.00;3.00;;;;;28.39;32.90;100404.75;5079916;27;45505;-73
2023/03/17 11:15:16;;;;;;;;;4.33;3.00;;;;;28.41;32.30;100398.03;5075252;27;45578;-72
2023/03/17 11:17:47;;;;;;;;;3.00;2.67;;;;;28.42;32.31;100398.88;5075714;27;45614;-72
2023/03/17 11:20:18;;;;;;;;;3.00;2.33;;;;;28.41;32.14;100402.66;5075616;27;45913;-75
2023/03/17 11:23:05;;;;;;;;;4.00;3.00;;;;;28.39;32.12;100408.31;5074652;27;46221;-75
2023/03/17 11:25:37;;;;;;;;;3.67;2.00;;;;;28.37;32.43;100409.59;5073094;27;45562;-74
2023/03/17 11:28:19;;;;;;;;;3.00;3.00;;;;;28.36;31.89;100405.19;5073013;27;45420;-77
2023/03/17 11:30:56;;;;;;;;;3.67;2.67;;;;;28.27;32.12;100410.00;5072172;27;45518;-77
2023/03/17 11:33:35;;;;;;;;;4.00;3.00;;;;;28.24;32.14;100408.53;5071571;27;45687;-77
2023/03/17 12:56:30;;;;;;;;;7.25;3.25;;;;;19.58;36.65;100427.22;5057979;27;45900;-75
2023/03/17 12:59:07;;;;;;;;;3.00;3.00;;;;;20.10;38.11;100421.25;5053542;28;45654;-75
2023/03/17 13:01:42;;;;;;;;;3.33;1.67;;;;;20.86;37.91;100414.59;5046306;28;45372;-75
2023/03/17 13:04:13;;;;;;;;;5.33;4.00;;;;;21.69;37.90;100415.88;5045145;28;45857;-74
2023/03/17 13:06:47;;;;;;;;;3.67;3.00;;;;;22.45;37.93;100406.03;5045482;28;45653;-75
2023/03/17 13:09:45;;;;;;;;;2.67;2.67;;;;;23.17;37.18;100399.84;5056865;28;45570;-75
2023/03/17 13:12:35;;;;;;;;;2.00;2.00;;;;;23.91;36.61;100407.84;5047694;28;45490;-75
2023/03/17 13:15:01;;;;;;;;;5.00;3.00;;;;;24.41;36.34;100407.50;5052289;28;45273;-75
2023/03/17 13:17:27;;;;;;;;;2.00;2.00;;;;;24.84;36.37;100407.78;5048554;28;45508;-75
2023/03/17 13:20:08;;;;;;;;;2.33;2.00;;;;;25.24;35.74;100396.66;5048187;28;45751;-75
2023/03/17 13:22:40;;;;;;;;;5.67;3.00;;;;;25.57;35.38;100406.28;5041786;28;45394;-76
2023/03/17 13:25:28;;;;;;;;;3.00;3.00;;;;;25.87;35.46;100402.66;5048122;28;45739;-76
2023/03/17 13:28:15;;;;;;;;;1.67;1.67;;;;;26.15;34.95;100401.88;5039800;28;46361;-76
2023/03/17 13:30:54;;;;;;;;;3.33;2.67;;;;;26.40;34.78;100406.97;5052106;28;45443;-74
2023/03/17 13:33:26;;;;;;;;;6.33;5.00;;;;;26.60;34.15;100403.56;5045954;28;45419;-77
2023/03/17 13:36:06;;;;;;;;;2.00;2.00;;;;;26.77;34.43;100404.09;5048509;28;45451;-77
2023/03/17 13:38:56;;;;;;;;;2.00;2.00;;;;;26.93;34.27;100406.53;5044685;28;47102;-76
2023/03/17 13:41:40;;;;;;;;;2.67;2.00;;;;;27.10;33.67;100408.94;5048770;28;45438;-78
2023/03/17 13:44:25;;;;;;;;;2.33;2.33;;;;;27.22;33.93;100414.69;5048965;28;45596;-79
2023/03/17 13:46:51;;;;;;;;;3.00;3.00;;;;;27.31;33.66;100405.28;5048767;28;45499;-83
2023/03/17 13:49:22;;;;;;;;;3.00;3.00;;;;;27.42;33.59;100420.19;5048166;28;45875;-84
2023/03/17 13:51:51;;;;;;;;;5.67;4.67;;;;;27.52;32.98;100408.09;5049748;28;45762;-83
2023/03/17 13:54:29;;;;;;;;;2.00;1.33;;;;;27.59;33.11;100398.88;5049260;28;45362;-83
2023/03/17 13:56:58;;;;;;;;;2.00;2.00;;;;;27.69;33.13;100397.69;5048633;28;45500;-84
2023/03/17 13:59:39;;;;;;;;;4.00;2.00;;;;;27.77;33.09;100394.78;5045767;28;46362;-83
2023/03/17 14:02:15;;;;;;;;;2.00;2.00;;;;;27.84;32.98;100400.25;5046145;28;45799;-85
2023/03/17 14:04:57;;;;;;;;;4.00;2.00;;;;;27.91;32.45;100392.91;5046484;28;45585;-83
2023/03/17 14:07:30;;;;;;;;;3.67;3.67;;;;;27.93;32.46;100390.84;5026385;28;45653;-81
2023/03/17 14:10:03;;;;;;;;;5.67;3.00;;;;;27.99;32.40;100390.00;5023569;28;46360;-81
2023/03/17 14:12:49;;;;;;;;;2.00;2.00;;;;;28.02;32.66;100397.78;5026855;28;45479;-78
2023/03/17 14:15:27;;;;;;;;;2.67;2.00;;;;;28.05;32.71;100401.13;5028633;28;45612;-82
2023/03/17 14:18:01;;;;;;;;;5.00;4.00;;;;;28.09;32.22;100400.50;5022908;28;45804;-80
2023/03/17 14:20:27;;;;;;;;;1.33;1.33;;;;;28.15;32.49;100417.91;5028597;28;45646;-81
2023/03/17 14:23:01;;;;;;;;;2.00;2.00;;;;;28.19;32.43;100410.19;5026733;28;45439;-81
2023/03/17 14:25:35;;;;;;;;;3.00;3.00;;;;;28.24;31.95;100400.34;5025989;28;45468;-80
2023/03/17 14:28:06;;;;;;;;;3.00;2.00;;;;;28.27;32.22;100397.19;5027388;28;45514;-81
2023/03/17 14:30:33;;;;;;;;;3.33;3.00;;;;;28.32;31.82;100398.47;5026429;28;45570;-79
2023/03/17 14:32:59;;;;;;;;;2.00;2.00;;;;;28.34;31.79;100394.47;5025250;28;45622;-78
2023/03/17 14:35:28;;;;;;;;;1.67;1.67;;;;;28.38;32.36;100397.63;5020449;28;45662;-76
2023/03/17 14:37:53;;;;;;;;;3.00;1.00;;;;;28.39;31.73;100393.81;5028672;28;45556;-77
2023/03/17 14:40:24;;;;;;;;;4.33;2.00;;;;;28.42;31.59;100396.16;5028492;28;49897;-82
2023/03/17 14:42:49;;;;;;;;;4.33;2.00;;;;;28.44;31.52;100394.03;5028173;28;45576;-82
2023/03/17 14:45:28;;;;;;;;;5.00;2.00;;;;;28.48;31.66;100389.03;5027448;28;46014;-81
2023/03/17 14:47:54;;;;;;;;;5.33;5.00;;;;;28.50;31.37;100395.09;5023059;28;45304;-81
2023/03/17 14:50:26;;;;;;;;;5.00;4.33;;;;;28.48;31.76;100397.22;5029751;28;47038;-81
2023/03/17 14:52:51;;;;;;;;;6.00;5.67;;;;;28.41;31.00;100391.75;5019519;28;45520;-82
2023/03/17 14:55:18;;;;;;;;;8.00;5.33;;;;;28.34;30.97;100397.19;5025402;28;45581;-86
2023/03/17 14:57:48;;;;;;;;;6.67;6.00;;;;;28.25;31.39;100401.19;5026266;28;46037;-83
2023/03/17 15:00:36;;;;;;;;;6.00;4.50;;;;;28.14;30.67;100399.88;5018259;28;47162;-81
2023/03/17 15:03:14;;;;;;;;;9.00;6.00;;;;;28.04;30.56;100405.75;5026464;28;45617;-81
2023/03/17 15:05:42;;;;;;;;;6.33;5.33;;;;;27.94;30.89;100400.69;5025849;28;45515;-81
2023/03/17 15:08:27;;;;;;;;;7.00;5.67;;;;;27.84;30.96;100389.34;5024607;28;45735;-81
2023/03/17 15:10:56;;;;;;;;;5.67;4.33;;;;;27.76;30.44;100395.84;5025149;28;46223;-80
2023/03/17 15:13:24;;;;;;;;;4.67;4.67;;;;;27.68;30.90;100388.69;5022633;28;45853;-81
2023/03/17 15:15:50;;;;;;;;;6.00;5.00;;;;;27.62;30.54;100384.88;5022783;28;47132;-80
2023/03/17 15:18:18;;;;;;;;;4.00;4.00;;;;;27.60;30.97;100377.97;5024574;28;45729;-79
2023/03/17 15:20:44;;;;;;;;;4.00;4.00;;;;;27.58;30.42;100380.84;5025828;28;46517;-79
2023/03/17 15:23:23;;;;;;;;;5.00;5.00;;;;;27.59;30.39;100382.53;5025635;28;45613;-80
2023/03/17 15:25:54;;;;;;;;;4.00;4.00;;;;;27.57;30.86;100384.63;5025657;28;45659;-79
2023/03/17 15:28:21;;;;;;;;;4.00;4.00;;;;;27.55;30.89;100385.88;5024842;28;45532;-79
2023/03/17 15:30:49;;;;;;;;;6.33;6.00;;;;;27.49;30.42;100387.53;5023167;28;47336;-87
2023/03/17 15:33:27;;;;;;;;;8.33;5.67;;;;;27.46;30.83;100388.78;5015732;28;45506;-80
2023/03/17 15:35:52;;;;;;;;;8.67;5.67;;;;;27.46;30.37;100391.50;5023339;28;47165;-78
2023/03/17 15:38:18;;;;;;;;;5.33;4.00;;;;;27.49;30.35;100393.81;5025624;28;45654;-79
2023/03/17 15:40:44;;;;;;;;;6.00;6.00;;;;;27.53;30.58;100391.53;5022799;28;45905;-78
2023/03/17 15:43:13;;;;;;;;;4.33;4.00;;;;;27.60;30.50;100392.44;5031210;28;45483;-78
2023/03/17 15:45:39;;;;;;;;;4.67;3.33;;;;;27.69;31.16;100394.97;5033807;28;45294;-78
2023/03/17 15:48:08;;;;;;;;;7.00;5.00;;;;;27.75;30.63;100389.53;5033518;28;45480;-80
2023/03/17 15:50:33;;;;;;;;;5.33;5.00;;;;;27.82;30.56;100385.97;5034209;28;46102;-79
2023/03/17 15:52:59;;;;;;;;;3.67;3.00;;;;;27.88;30.75;100380.53;5034097;28;45550;-79
2023/03/17 15:55:28;;;;;;;;;8.33;4.33;;;;;27.95;30.59;100371.53;5033386;28;45381;-79
2023/03/17 15:57:54;;;;;;;;;6.33;4.33;;;;;28.00;31.23;100369.84;5032098;28;45626;-79
2023/03/17 16:00:21;;;;;;;;;5.00;4.00;;;;;28.06;31.11;100375.53;5035272;28;45497;-79
2023/03/17 16:02:50;;;;;;;;;4.33;4.33;;;;;28.09;30.90;100367.78;5033066;28;45426;-78
2023/03/17 16:05:18;;;;;;;;;6.33;5.33;;;;;28.13;31.21;100363.56;5033964;28;45393;-80
2023/03/17 16:07:44;;;;;;;;;5.67;5.00;;;;;28.20;31.29;100354.56;5033782;28;45539;-82
2023/03/17 16:10:20;;;;;;;;;4.67;3.33;;;;;28.25;31.25;100352.88;5033606;28;45440;-81
2023/03/17 16:12:46;;;;;;;;;4.00;4.00;;;;;28.31;31.04;100355.84;5029930;28;45645;-78
2023/03/17 16:15:18;;;;;;;;;3.33;3.33;;;;;28.36;30.70;100362.34;5034041;28;45428;-82
2023/03/17 16:17:45;;;;;;;;;6.00;4.67;;;;;28.40;30.79;100370.94;5032699;28;45816;-82
2023/03/17 16:20:24;;;;;;;;;8.33;5.67;;;;;28.45;31.26;100375.78;5033899;28;46351;-81
2023/03/17 16:22:53;;;;;;;;;3.67;3.67;;;;;28.49;30.87;100382.50;5032666;28;45430;-81
2023/03/17 16:25:28;;;;;;;;;2.00;2.00;;;;;28.52;30.68;100390.25;5033535;28;45460;-79
2023/03/17 16:27:56;;;;;;;;;0.33;0.33;;;;;28.55;30.77;100395.31;5020932;28;45339;-79
2023/03/17 16:30:40;;;;;;;;;5.00;3.67;;;;;28.58;31.15;100407.69;5033015;28;45453;-79
2023/03/17 16:33:24;;;;;;;;;4.33;4.33;;;;;28.58;30.71;100413.16;5033605;28;45427;-79
2023/03/17 16:35:56;;;;;;;;;3.33;3.33;;;;;28.60;31.26;100419.25;5034095;28;45472;-79
2023/03/17 16:38:23;;;;;;;;;3.00;3.00;;;;;28.63;31.27;100421.53;5032396;28;45479;-80
2023/03/17 16:40:54;;;;;;;;;5.67;5.00;;;;;28.65;31.45;100422.19;5033351;28;45895;-78
